sensor_id;sensor_type;location;lat;lon;timestamp;pressure;altitude;pressure_sealevel;temperature;humidity
26376;BME280;30544;42.196;24.336;2022-11-14T00:01:47;100360.03;;;6.82;94.26
26376;BME280;30544;42.196;24.336;2022-11-14T00:04:15;100359.06;;;6.89;94.26
26376;BME280;30544;42.196;24.336;2022-11-14T00:06:42;100351.63;;;6.69;94.80
26376;BME280;30544;42.196;24.336;2022-11-14T00:09:09;100352.16;;;6.79;94.66
26376;BME280;30544;42.196;24.336;2022-11-14T00:11:35;100344.88;;;6.92;94.21
26376;BME280;30544;42.196;24.336;2022-11-14T00:14:05;100338.03;;;6.88;93.79
26376;BME280;30544;42.196;24.336;2022-11-14T00:16:32;100333.44;;;6.96;93.72
26376;BME280;30544;42.196;24.336;2022-11-14T00:18:58;100343.09;;;6.63;93.82
26376;BME280;30544;42.196;24.336;2022-11-14T00:21:27;100339.31;;;6.50;94.49
26376;BME280;30544;42.196;24.336;2022-11-14T00:23:53;100346.19;;;6.75;94.21
26376;BME280;30544;42.196;24.336;2022-11-14T00:26:20;100333.91;;;6.78;93.21
26376;BME280;30544;42.196;24.336;2022-11-14T00:28:47;100330.50;;;6.76;93.24
26376;BME280;30544;42.196;24.336;2022-11-14T00:31:14;100323.84;;;6.70;93.45
26376;BME280;30544;42.196;24.336;2022-11-14T00:33:40;100326.47;;;6.57;93.42
26376;BME280;30544;42.196;24.336;2022-11-14T00:36:07;100324.09;;;6.54;93.49
26376;BME280;30544;42.196;24.336;2022-11-14T00:38:36;100319.97;;;6.64;93.29
26376;BME280;30544;42.196;24.336;2022-11-14T00:41:02;100325.69;;;6.63;92.94
26376;BME280;30544;42.196;24.336;2022-11-14T00:43:29;100318.88;;;6.59;92.99
26376;BME280;30544;42.196;24.336;2022-11-14T00:45:56;100319.72;;;6.59;92.87
26376;BME280;30544;42.196;24.336;2022-11-14T00:48:22;100320.16;;;6.63;92.81
26376;BME280;30544;42.196;24.336;2022-11-14T00:50:49;100322.78;;;6.71;92.85
26376;BME280;30544;42.196;24.336;2022-11-14T00:53:16;100317.22;;;6.64;92.45
26376;BME280;30544;42.196;24.336;2022-11-14T00:55:44;100307.94;;;6.51;92.74
26376;BME280;30544;42.196;24.336;2022-11-14T00:58:11;100301.47;;;6.58;92.36
26376;BME280;30544;42.196;24.336;2022-11-14T01:00:37;100308.41;;;6.54;92.55
26376;BME280;30544;42.196;24.336;2022-11-14T01:03:04;100305.03;;;6.38;93.49
26376;BME280;30544;42.196;24.336;2022-11-14T01:05:31;100311.88;;;6.42;94.10
26376;BME280;30544;42.196;24.336;2022-11-14T01:07:58;100314.00;;;6.40;94.62
26376;BME280;30544;42.196;24.336;2022-11-14T01:10:24;100309.66;;;6.52;94.74
26376;BME280;30544;42.196;24.336;2022-11-14T01:12:53;100305.44;;;6.34;94.63
26376;BME280;30544;42.196;24.336;2022-11-14T01:15:19;100301.56;;;6.29;95.50
26376;BME280;30544;42.196;24.336;2022-11-14T01:17:46;100299.00;;;6.27;95.32
26376;BME280;30544;42.196;24.336;2022-11-14T01:20:13;100301.41;;;6.16;95.23
26376;BME280;30544;42.196;24.336;2022-11-14T01:22:40;100305.50;;;6.05;95.55
26376;BME280;30544;42.196;24.336;2022-11-14T01:25:07;100291.91;;;6.03;95.66
26376;BME280;30544;42.196;24.336;2022-11-14T01:27:34;100295.25;;;5.99;94.88
26376;BME280;30544;42.196;24.336;2022-11-14T01:30:03;100291.63;;;6.13;94.30
26376;BME280;30544;42.196;24.336;2022-11-14T01:32:30;100293.97;;;6.16;94.29
26376;BME280;30544;42.196;24.336;2022-11-14T01:34:57;100285.25;;;6.13;94.04
26376;BME280;30544;42.196;24.336;2022-11-14T01:37:23;100284.13;;;6.07;93.37
26376;BME280;30544;42.196;24.336;2022-11-14T01:39:50;100295.50;;;6.04;93.91
26376;BME280;30544;42.196;24.336;2022-11-14T01:42:17;100275.47;;;6.10;93.77
26376;BME280;30544;42.196;24.336;2022-11-14T01:44:46;100286.72;;;5.94;94.54
26376;BME280;30544;42.196;24.336;2022-11-14T01:47:17;100280.56;;;5.92;95.25
26376;BME280;30544;42.196;24.336;2022-11-14T01:49:47;100274.53;;;6.03;94.72
26376;BME280;30544;42.196;24.336;2022-11-14T01:52:18;100280.75;;;5.90;94.58
26376;BME280;30544;42.196;24.336;2022-11-14T01:54:48;100283.19;;;6.00;94.20
26376;BME280;30544;42.196;24.336;2022-11-14T01:57:17;100272.38;;;5.98;94.98
26376;BME280;30544;42.196;24.336;2022-11-14T01:59:47;100267.72;;;5.99;94.37
26376;BME280;30544;42.196;24.336;2022-11-14T02:02:19;100265.22;;;6.04;94.09
26376;BME280;30544;42.196;24.336;2022-11-14T02:04:48;100269.03;;;6.03;93.41
26376;BME280;30544;42.196;24.336;2022-11-14T02:07:16;100268.66;;;6.06;93.10
26376;BME280;30544;42.196;24.336;2022-11-14T02:09:45;100269.41;;;5.85;93.62
26376;BME280;30544;42.196;24.336;2022-11-14T02:12:15;100271.16;;;5.71;95.32
26376;BME280;30544;42.196;24.336;2022-11-14T02:14:44;100267.22;;;5.81;94.68
26376;BME280;30544;42.196;24.336;2022-11-14T02:17:13;100267.88;;;5.83;94.58
26376;BME280;30544;42.196;24.336;2022-11-14T02:19:43;100256.94;;;6.04;93.98
26376;BME280;30544;42.196;24.336;2022-11-14T02:22:11;100263.84;;;5.93;94.05
26376;BME280;30544;42.196;24.336;2022-11-14T02:24:38;100266.97;;;6.05;93.62
26376;BME280;30544;42.196;24.336;2022-11-14T02:27:05;100261.44;;;6.05;93.34
26376;BME280;30544;42.196;24.336;2022-11-14T02:29:33;100250.53;;;5.97;93.24
26376;BME280;30544;42.196;24.336;2022-11-14T02:32:00;100265.34;;;5.81;94.03
26376;BME280;30544;42.196;24.336;2022-11-14T02:34:27;100262.97;;;5.93;94.39
26376;BME280;30544;42.196;24.336;2022-11-14T02:36:54;100257.91;;;6.11;93.80
26376;BME280;30544;42.196;24.336;2022-11-14T02:39:23;100254.19;;;6.04;93.58
26376;BME280;30544;42.196;24.336;2022-11-14T02:41:52;100251.56;;;5.96;93.01
26376;BME280;30544;42.196;24.336;2022-11-14T02:44:19;100254.41;;;6.02;92.68
26376;BME280;30544;42.196;24.336;2022-11-14T02:46:46;100250.13;;;5.85;93.02
26376;BME280;30544;42.196;24.336;2022-11-14T02:49:13;100258.13;;;5.80;92.96
26376;BME280;30544;42.196;24.336;2022-11-14T02:51:39;100259.91;;;5.88;93.23
26376;BME280;30544;42.196;24.336;2022-11-14T02:54:06;100251.09;;;5.78;92.80
26376;BME280;30544;42.196;24.336;2022-11-14T02:56:35;100255.94;;;5.76;92.96
26376;BME280;30544;42.196;24.336;2022-11-14T02:59:01;100257.00;;;5.74;93.44
26376;BME280;30544;42.196;24.336;2022-11-14T03:01:28;100254.53;;;5.65;92.96
26376;BME280;30544;42.196;24.336;2022-11-14T03:03:55;100253.94;;;5.69;93.02
26376;BME280;30544;42.196;24.336;2022-11-14T03:06:22;100250.66;;;5.59;93.06
26376;BME280;30544;42.196;24.336;2022-11-14T03:08:48;100258.91;;;5.59;93.31
26376;BME280;30544;42.196;24.336;2022-11-14T03:11:15;100252.09;;;5.55;93.74
26376;BME280;30544;42.196;24.336;2022-11-14T03:13:43;100257.28;;;5.50;93.86
26376;BME280;30544;42.196;24.336;2022-11-14T03:16:13;100254.72;;;5.49;94.29
26376;BME280;30544;42.196;24.336;2022-11-14T03:18:40;100253.09;;;5.54;94.23
26376;BME280;30544;42.196;24.336;2022-11-14T03:21:08;100257.66;;;5.47;93.52
26376;BME280;30544;42.196;24.336;2022-11-14T03:23:36;100258.72;;;5.61;93.69
26376;BME280;30544;42.196;24.336;2022-11-14T03:26:04;100264.50;;;5.51;94.31
26376;BME280;30544;42.196;24.336;2022-11-14T03:28:32;100263.16;;;5.47;93.83
26376;BME280;30544;42.196;24.336;2022-11-14T03:31:00;100251.03;;;5.56;93.59
26376;BME280;30544;42.196;24.336;2022-11-14T03:33:27;100252.25;;;5.54;92.87
26376;BME280;30544;42.196;24.336;2022-11-14T03:35:54;100252.94;;;5.41;92.48
26376;BME280;30544;42.196;24.336;2022-11-14T03:38:21;100259.56;;;5.47;92.40
26376;BME280;30544;42.196;24.336;2022-11-14T03:40:48;100256.81;;;5.47;93.00
26376;BME280;30544;42.196;24.336;2022-11-14T03:43:16;100254.44;;;5.43;93.26
26376;BME280;30544;42.196;24.336;2022-11-14T03:45:43;100253.59;;;5.43;93.34
26376;BME280;30544;42.196;24.336;2022-11-14T03:48:11;100246.84;;;5.46;93.08
26376;BME280;30544;42.196;24.336;2022-11-14T03:50:38;100249.88;;;5.36;93.45
26376;BME280;30544;42.196;24.336;2022-11-14T03:53:05;100249.22;;;5.34;93.35
26376;BME280;30544;42.196;24.336;2022-11-14T03:55:32;100246.56;;;5.40;92.75
26376;BME280;30544;42.196;24.336;2022-11-14T03:57:59;100238.50;;;5.39;93.16
26376;BME280;30544;42.196;24.336;2022-11-14T04:00:26;100243.16;;;5.38;93.26
26376;BME280;30544;42.196;24.336;2022-11-14T04:02:58;100240.28;;;5.32;93.00
26376;BME280;30544;42.196;24.336;2022-11-14T04:05:26;100248.16;;;5.35;93.84
26376;BME280;30544;42.196;24.336;2022-11-14T04:07:53;100247.50;;;5.33;93.38
26376;BME280;30544;42.196;24.336;2022-11-14T04:10:19;100255.28;;;5.14;94.27
26376;BME280;30544;42.196;24.336;2022-11-14T04:12:46;100260.78;;;5.14;94.79
26376;BME280;30544;42.196;24.336;2022-11-14T04:15:14;100250.06;;;5.34;94.29
26376;BME280;30544;42.196;24.336;2022-11-14T04:17:41;100256.81;;;5.32;93.79
26376;BME280;30544;42.196;24.336;2022-11-14T04:20:09;100256.53;;;5.27;93.73
26376;BME280;30544;42.196;24.336;2022-11-14T04:22:38;100259.94;;;5.29;94.04
26376;BME280;30544;42.196;24.336;2022-11-14T04:25:05;100255.09;;;5.31;93.35
26376;BME280;30544;42.196;24.336;2022-11-14T04:27:33;100255.66;;;5.26;93.29
26376;BME280;30544;42.196;24.336;2022-11-14T04:29:59;100253.00;;;5.18;93.59
26376;BME280;30544;42.196;24.336;2022-11-14T04:32:26;100251.03;;;5.27;93.83
26376;BME280;30544;42.196;24.336;2022-11-14T04:34:53;100253.50;;;5.22;93.72
26376;BME280;30544;42.196;24.336;2022-11-14T04:37:20;100255.06;;;5.16;93.06
26376;BME280;30544;42.196;24.336;2022-11-14T04:39:48;100262.78;;;5.21;92.77
26376;BME280;30544;42.196;24.336;2022-11-14T04:42:17;100259.00;;;5.22;93.47
26376;BME280;30544;42.196;24.336;2022-11-14T04:44:47;100259.28;;;5.27;93.31
26376;BME280;30544;42.196;24.336;2022-11-14T04:47:14;100260.78;;;5.29;92.43
26376;BME280;30544;42.196;24.336;2022-11-14T04:49:41;100263.13;;;5.18;92.51
26376;BME280;30544;42.196;24.336;2022-11-14T04:52:07;100258.78;;;5.08;93.64
26376;BME280;30544;42.196;24.336;2022-11-14T04:54:34;100269.13;;;5.06;93.90
26376;BME280;30544;42.196;24.336;2022-11-14T04:57:04;100263.06;;;5.11;93.70
26376;BME280;30544;42.196;24.336;2022-11-14T04:59:34;100267.03;;;5.08;93.67
26376;BME280;30544;42.196;24.336;2022-11-14T05:02:01;100269.31;;;5.05;93.50
26376;BME280;30544;42.196;24.336;2022-11-14T05:04:27;100270.97;;;4.91;94.52
26376;BME280;30544;42.196;24.336;2022-11-14T05:06:55;100284.34;;;4.94;95.73
26376;BME280;30544;42.196;24.336;2022-11-14T05:09:22;100280.31;;;4.82;94.77
26376;BME280;30544;42.196;24.336;2022-11-14T05:11:48;100285.69;;;4.98;95.24
26376;BME280;30544;42.196;24.336;2022-11-14T05:14:16;100279.09;;;4.84;95.70
26376;BME280;30544;42.196;24.336;2022-11-14T05:16:43;100282.59;;;4.78;94.80
26376;BME280;30544;42.196;24.336;2022-11-14T05:19:10;100285.63;;;5.06;94.90
26376;BME280;30544;42.196;24.336;2022-11-14T05:21:37;100286.53;;;4.99;94.82
26376;BME280;30544;42.196;24.336;2022-11-14T05:24:04;100282.78;;;5.14;94.30
26376;BME280;30544;42.196;24.336;2022-11-14T05:26:31;100286.81;;;4.89;94.71
26376;BME280;30544;42.196;24.336;2022-11-14T05:28:57;100285.22;;;4.95;95.08
26376;BME280;30544;42.196;24.336;2022-11-14T05:31:26;100288.38;;;4.83;94.42
26376;BME280;30544;42.196;24.336;2022-11-14T05:33:52;100292.59;;;4.94;94.03
26376;BME280;30544;42.196;24.336;2022-11-14T05:36:19;100298.28;;;4.93;94.22
26376;BME280;30544;42.196;24.336;2022-11-14T05:38:46;100295.09;;;5.04;94.40
26376;BME280;30544;42.196;24.336;2022-11-14T05:41:14;100304.03;;;4.83;94.54
26376;BME280;30544;42.196;24.336;2022-11-14T05:43:42;100307.59;;;4.92;94.99
26376;BME280;30544;42.196;24.336;2022-11-14T05:46:11;100313.38;;;4.97;94.15
26376;BME280;30544;42.196;24.336;2022-11-14T05:48:40;100311.59;;;4.81;93.51
26376;BME280;30544;42.196;24.336;2022-11-14T05:51:10;100314.16;;;5.05;93.86
26376;BME280;30544;42.196;24.336;2022-11-14T05:53:37;100313.78;;;5.08;93.52
26376;BME280;30544;42.196;24.336;2022-11-14T05:56:06;100312.78;;;5.24;92.99
26376;BME280;30544;42.196;24.336;2022-11-14T05:58:38;100316.91;;;5.20;92.96
26376;BME280;30544;42.196;24.336;2022-11-14T06:01:06;100314.09;;;5.28;93.50
26376;BME280;30544;42.196;24.336;2022-11-14T06:03:36;100313.16;;;5.51;92.51
26376;BME280;30544;42.196;24.336;2022-11-14T06:06:06;100315.66;;;5.75;92.40
26376;BME280;30544;42.196;24.336;2022-11-14T06:08:34;100307.94;;;5.70;91.81
26376;BME280;30544;42.196;24.336;2022-11-14T06:11:02;100313.56;;;5.77;91.98
26376;BME280;30544;42.196;24.336;2022-11-14T06:13:29;100322.22;;;5.89;91.70
26376;BME280;30544;42.196;24.336;2022-11-14T06:15:58;100318.50;;;6.11;90.96
26376;BME280;30544;42.196;24.336;2022-11-14T06:18:25;100323.22;;;6.32;90.45
26376;BME280;30544;42.196;24.336;2022-11-14T06:20:52;100321.69;;;6.29;89.90
26376;BME280;30544;42.196;24.336;2022-11-14T06:23:23;100313.84;;;6.48;89.53
26376;BME280;30544;42.196;24.336;2022-11-14T06:25:50;100314.75;;;6.55;89.35
26376;BME280;30544;42.196;24.336;2022-11-14T06:28:16;100321.72;;;6.51;89.25
26376;BME280;30544;42.196;24.336;2022-11-14T06:30:43;100317.34;;;6.78;88.60
26376;BME280;30544;42.196;24.336;2022-11-14T06:33:10;100316.81;;;6.68;89.26
26376;BME280;30544;42.196;24.336;2022-11-14T06:35:37;100321.56;;;6.74;88.37
26376;BME280;30544;42.196;24.336;2022-11-14T06:38:03;100314.13;;;6.96;87.68
26376;BME280;30544;42.196;24.336;2022-11-14T06:40:31;100317.59;;;7.04;87.52
26376;BME280;30544;42.196;24.336;2022-11-14T06:42:58;100312.94;;;7.05;87.63
26376;BME280;30544;42.196;24.336;2022-11-14T06:45:25;100312.94;;;7.05;87.85
26376;BME280;30544;42.196;24.336;2022-11-14T06:47:52;100315.72;;;7.33;86.89
26376;BME280;30544;42.196;24.336;2022-11-14T06:50:18;100314.72;;;7.40;86.70
26376;BME280;30544;42.196;24.336;2022-11-14T06:52:45;100315.41;;;7.21;86.35
26376;BME280;30544;42.196;24.336;2022-11-14T06:55:12;100319.28;;;7.27;87.07
26376;BME280;30544;42.196;24.336;2022-11-14T06:57:40;100318.91;;;7.58;86.07
26376;BME280;30544;42.196;24.336;2022-11-14T07:00:08;100313.91;;;7.46;85.17
26376;BME280;30544;42.196;24.336;2022-11-14T07:02:37;100315.97;;;7.66;84.41
26376;BME280;30544;42.196;24.336;2022-11-14T07:05:05;100310.31;;;7.80;83.45
26376;BME280;30544;42.196;24.336;2022-11-14T07:07:31;100313.06;;;7.74;85.46
26376;BME280;30544;42.196;24.336;2022-11-14T07:09:58;100305.84;;;7.79;84.08
26376;BME280;30544;42.196;24.336;2022-11-14T07:12:25;100309.56;;;7.59;84.40
26376;BME280;30544;42.196;24.336;2022-11-14T07:14:54;100310.22;;;7.67;84.88
26376;BME280;30544;42.196;24.336;2022-11-14T07:17:21;100309.63;;;8.06;83.65
26376;BME280;30544;42.196;24.336;2022-11-14T07:19:48;100308.41;;;7.81;84.69
26376;BME280;30544;42.196;24.336;2022-11-14T07:22:15;100309.91;;;7.83;85.10
26376;BME280;30544;42.196;24.336;2022-11-14T07:24:41;100310.25;;;8.08;84.20
26376;BME280;30544;42.196;24.336;2022-11-14T07:27:08;100297.31;;;8.22;84.61
26376;BME280;30544;42.196;24.336;2022-11-14T07:29:36;100296.44;;;8.08;85.18
26376;BME280;30544;42.196;24.336;2022-11-14T07:32:04;100298.19;;;8.23;85.34
26376;BME280;30544;42.196;24.336;2022-11-14T07:34:31;100290.81;;;8.36;84.74
26376;BME280;30544;42.196;24.336;2022-11-14T07:36:58;100289.63;;;8.65;84.68
26376;BME280;30544;42.196;24.336;2022-11-14T07:39:25;100284.53;;;8.69;84.12
26376;BME280;30544;42.196;24.336;2022-11-14T07:41:51;100284.34;;;9.03;82.87
26376;BME280;30544;42.196;24.336;2022-11-14T07:44:18;100279.22;;;8.67;84.48
26376;BME280;30544;42.196;24.336;2022-11-14T07:46:45;100285.44;;;9.09;83.61
26376;BME280;30544;42.196;24.336;2022-11-14T07:49:13;100279.47;;;9.12;83.15
26376;BME280;30544;42.196;24.336;2022-11-14T07:51:39;100282.88;;;9.41;82.87
26376;BME280;30544;42.196;24.336;2022-11-14T07:54:09;100284.56;;;9.15;83.59
26376;BME280;30544;42.196;24.336;2022-11-14T07:56:37;100272.94;;;9.98;80.47
26376;BME280;30544;42.196;24.336;2022-11-14T07:59:04;100280.56;;;10.02;79.69
26376;BME280;30544;42.196;24.336;2022-11-14T08:01:31;100274.69;;;9.79;81.16
26376;BME280;30544;42.196;24.336;2022-11-14T08:03:57;100275.69;;;9.98;81.10
26376;BME280;30544;42.196;24.336;2022-11-14T08:06:26;100270.34;;;10.09;79.74
26376;BME280;30544;42.196;24.336;2022-11-14T08:08:53;100263.44;;;10.18;79.09
26376;BME280;30544;42.196;24.336;2022-11-14T08:11:21;100279.84;;;10.33;78.18
26376;BME280;30544;42.196;24.336;2022-11-14T08:14:02;100273.50;;;10.58;77.95
26376;BME280;30544;42.196;24.336;2022-11-14T08:16:29;100275.06;;;10.85;76.76
26376;BME280;30544;42.196;24.336;2022-11-14T08:18:59;100275.44;;;10.57;76.87
26376;BME280;30544;42.196;24.336;2022-11-14T08:21:27;100279.44;;;10.68;75.61
26376;BME280;30544;42.196;24.336;2022-11-14T08:23:54;100270.13;;;10.87;76.63
26376;BME280;30544;42.196;24.336;2022-11-14T08:26:20;100269.81;;;11.02;76.68
26376;BME280;30544;42.196;24.336;2022-11-14T08:28:47;100260.22;;;11.23;74.52
26376;BME280;30544;42.196;24.336;2022-11-14T08:31:17;100264.03;;;11.28;73.81
26376;BME280;30544;42.196;24.336;2022-11-14T08:33:44;100267.13;;;11.63;73.57
26376;BME280;30544;42.196;24.336;2022-11-14T08:36:11;100264.81;;;11.60;72.19
26376;BME280;30544;42.196;24.336;2022-11-14T08:38:39;100260.09;;;11.36;73.04
26376;BME280;30544;42.196;24.336;2022-11-14T08:41:05;100260.75;;;11.56;72.65
26376;BME280;30544;42.196;24.336;2022-11-14T08:43:32;100260.22;;;11.48;72.42
26376;BME280;30544;42.196;24.336;2022-11-14T08:46:00;100256.47;;;11.60;72.55
26376;BME280;30544;42.196;24.336;2022-11-14T08:48:30;100257.59;;;12.14;70.72
26376;BME280;30544;42.196;24.336;2022-11-14T08:51:01;100247.72;;;11.75;70.05
26376;BME280;30544;42.196;24.336;2022-11-14T08:53:28;100253.13;;;11.95;70.72
26376;BME280;30544;42.196;24.336;2022-11-14T08:55:56;100257.41;;;12.27;69.32
26376;BME280;30544;42.196;24.336;2022-11-14T08:58:25;100243.34;;;12.22;69.26
26376;BME280;30544;42.196;24.336;2022-11-14T09:00:58;100238.34;;;12.61;68.53
26376;BME280;30544;42.196;24.336;2022-11-14T09:03:25;100237.59;;;12.35;68.97
26376;BME280;30544;42.196;24.336;2022-11-14T09:05:52;100223.78;;;12.59;68.58
26376;BME280;30544;42.196;24.336;2022-11-14T09:08:19;100221.28;;;12.69;68.78
26376;BME280;30544;42.196;24.336;2022-11-14T09:10:46;100229.09;;;12.49;68.94
26376;BME280;30544;42.196;24.336;2022-11-14T09:13:14;100218.25;;;12.71;67.32
26376;BME280;30544;42.196;24.336;2022-11-14T09:15:42;100231.63;;;12.50;68.46
26376;BME280;30544;42.196;24.336;2022-11-14T09:18:10;100225.28;;;12.73;66.41
26376;BME280;30544;42.196;24.336;2022-11-14T09:20:40;100219.09;;;12.71;66.07
26376;BME280;30544;42.196;24.336;2022-11-14T09:23:08;100217.41;;;12.70;67.19
26376;BME280;30544;42.196;24.336;2022-11-14T09:25:35;100220.34;;;12.87;66.18
26376;BME280;30544;42.196;24.336;2022-11-14T09:28:04;100212.34;;;13.32;64.82
26376;BME280;30544;42.196;24.336;2022-11-14T09:30:33;100205.69;;;13.33;64.32
26376;BME280;30544;42.196;24.336;2022-11-14T09:33:00;100195.50;;;13.39;64.24
26376;BME280;30544;42.196;24.336;2022-11-14T09:35:30;100197.91;;;13.35;64.56
26376;BME280;30544;42.196;24.336;2022-11-14T09:38:00;100186.22;;;13.85;63.67
26376;BME280;30544;42.196;24.336;2022-11-14T09:40:28;100177.06;;;13.26;63.85
26376;BME280;30544;42.196;24.336;2022-11-14T09:43:09;100179.63;;;13.39;64.35
26376;BME280;30544;42.196;24.336;2022-11-14T09:45:41;100181.00;;;13.89;63.08
26376;BME280;30544;42.196;24.336;2022-11-14T09:48:13;100178.59;;;13.80;62.87
26376;BME280;30544;42.196;24.336;2022-11-14T09:50:45;100173.88;;;13.81;63.49
26376;BME280;30544;42.196;24.336;2022-11-14T09:53:19;100180.22;;;13.41;63.98
26376;BME280;30544;42.196;24.336;2022-11-14T09:55:47;100178.91;;;13.20;64.13
26376;BME280;30544;42.196;24.336;2022-11-14T09:58:17;100173.06;;;13.57;63.58
26376;BME280;30544;42.196;24.336;2022-11-14T10:00:51;100162.44;;;13.94;62.83
26376;BME280;30544;42.196;24.336;2022-11-14T10:03:25;100167.81;;;13.84;64.04
26376;BME280;30544;42.196;24.336;2022-11-14T10:06:15;100156.81;;;14.06;63.02
26376;BME280;30544;42.196;24.336;2022-11-14T10:08:59;100147.56;;;13.77;63.53
26376;BME280;30544;42.196;24.336;2022-11-14T10:11:32;100151.19;;;14.18;63.45
26376;BME280;30544;42.196;24.336;2022-11-14T10:17:28;100150.63;;;14.61;62.43
26376;BME280;30544;42.196;24.336;2022-11-14T10:20:09;100145.75;;;14.39;63.60
26376;BME280;30544;42.196;24.336;2022-11-14T10:22:51;100144.63;;;13.95;65.55
26376;BME280;30544;42.196;24.336;2022-11-14T10:25:24;100130.78;;;14.29;65.01
26376;BME280;30544;42.196;24.336;2022-11-14T10:28:04;100137.19;;;14.29;65.20
26376;BME280;30544;42.196;24.336;2022-11-14T10:30:37;100128.50;;;14.42;64.50
26376;BME280;30544;42.196;24.336;2022-11-14T10:33:26;100120.69;;;14.90;63.76
26376;BME280;30544;42.196;24.336;2022-11-14T10:36:04;100120.53;;;14.46;63.04
26376;BME280;30544;42.196;24.336;2022-11-14T10:38:38;100115.56;;;14.36;63.50
26376;BME280;30544;42.196;24.336;2022-11-14T10:41:08;100113.94;;;14.69;62.57
26376;BME280;30544;42.196;24.336;2022-11-14T10:43:37;100102.75;;;14.86;62.73
26376;BME280;30544;42.196;24.336;2022-11-14T10:46:09;100109.38;;;14.80;62.42
26376;BME280;30544;42.196;24.336;2022-11-14T10:48:39;100102.59;;;14.75;62.63
26376;BME280;30544;42.196;24.336;2022-11-14T10:51:13;100104.78;;;14.73;62.44
26376;BME280;30544;42.196;24.336;2022-11-14T10:53:49;100095.16;;;14.64;61.74
26376;BME280;30544;42.196;24.336;2022-11-14T10:56:17;100099.13;;;14.68;62.31
26376;BME280;30544;42.196;24.336;2022-11-14T10:58:44;100094.31;;;14.81;62.27
26376;BME280;30544;42.196;24.336;2022-11-14T11:01:33;100080.47;;;15.08;62.17
26376;BME280;30544;42.196;24.336;2022-11-14T11:04:13;100087.50;;;14.93;61.55
26376;BME280;30544;42.196;24.336;2022-11-14T11:06:43;100085.56;;;14.77;62.33
26376;BME280;30544;42.196;24.336;2022-11-14T11:09:13;100076.78;;;15.24;62.58
26376;BME280;30544;42.196;24.336;2022-11-14T11:11:59;100069.03;;;15.48;60.91
26376;BME280;30544;42.196;24.336;2022-11-14T11:14:29;100069.88;;;15.10;62.00
26376;BME280;30544;42.196;24.336;2022-11-14T11:17:16;100063.56;;;14.97;62.51
26376;BME280;30544;42.196;24.336;2022-11-14T11:19:47;100060.28;;;15.44;60.94
26376;BME280;30544;42.196;24.336;2022-11-14T11:22:35;100057.75;;;15.21;60.17
26376;BME280;30544;42.196;24.336;2022-11-14T11:25:22;100055.94;;;15.31;61.10
26376;BME280;30544;42.196;24.336;2022-11-14T11:28:03;100059.84;;;15.52;60.31
26376;BME280;30544;42.196;24.336;2022-11-14T11:30:30;100056.91;;;15.42;59.03
26376;BME280;30544;42.196;24.336;2022-11-14T11:33:13;100053.75;;;15.33;59.36
26376;BME280;30544;42.196;24.336;2022-11-14T11:35:42;100046.19;;;15.56;58.91
26376;BME280;30544;42.196;24.336;2022-11-14T11:38:11;100050.00;;;15.06;61.22
26376;BME280;30544;42.196;24.336;2022-11-14T11:40:42;100051.38;;;15.25;60.81
26376;BME280;30544;42.196;24.336;2022-11-14T11:43:12;100046.56;;;15.21;61.67
26376;BME280;30544;42.196;24.336;2022-11-14T11:45:45;100046.94;;;15.46;60.88
26376;BME280;30544;42.196;24.336;2022-11-14T11:48:16;100040.41;;;15.19;61.66
26376;BME280;30544;42.196;24.336;2022-11-14T11:50:46;100040.34;;;15.35;61.08
26376;BME280;30544;42.196;24.336;2022-11-14T11:53:18;100031.75;;;15.42;61.35
26376;BME280;30544;42.196;24.336;2022-11-14T11:55:50;100034.28;;;15.22;61.52
26376;BME280;30544;42.196;24.336;2022-11-14T11:58:21;100030.13;;;15.24;62.04
26376;BME280;30544;42.196;24.336;2022-11-14T12:00:50;100033.66;;;15.37;61.11
26376;BME280;30544;42.196;24.336;2022-11-14T12:03:19;100031.38;;;15.33;61.51
26376;BME280;30544;42.196;24.336;2022-11-14T12:05:57;100026.25;;;15.47;61.38
26376;BME280;30544;42.196;24.336;2022-11-14T12:08:34;100025.53;;;15.35;61.26
26376;BME280;30544;42.196;24.336;2022-11-14T12:11:04;100018.50;;;15.54;60.88
26376;BME280;30544;42.196;24.336;2022-11-14T12:13:57;100018.97;;;15.68;59.49
26376;BME280;30544;42.196;24.336;2022-11-14T12:16:35;100017.41;;;15.55;60.35
26376;BME280;30544;42.196;24.336;2022-11-14T12:19:24;100010.91;;;15.72;60.12
26376;BME280;30544;42.196;24.336;2022-11-14T12:22:11;100015.66;;;15.71;60.65
26376;BME280;30544;42.196;24.336;2022-11-14T12:24:57;100014.75;;;15.66;59.74
26376;BME280;30544;42.196;24.336;2022-11-14T12:30:32;100008.25;;;15.60;60.93
26376;BME280;30544;42.196;24.336;2022-11-14T12:33:04;100009.56;;;15.30;62.47
26376;BME280;30544;42.196;24.336;2022-11-14T12:35:35;100010.06;;;15.49;61.57
26376;BME280;30544;42.196;24.336;2022-11-14T12:38:14;100006.22;;;15.33;61.95
26376;BME280;30544;42.196;24.336;2022-11-14T12:40:49;100004.25;;;15.56;61.99
26376;BME280;30544;42.196;24.336;2022-11-14T12:43:35;99998.09;;;15.10;61.72
26376;BME280;30544;42.196;24.336;2022-11-14T12:46:04;99990.31;;;15.12;61.95
26376;BME280;30544;42.196;24.336;2022-11-14T12:48:37;99994.53;;;15.15;61.81
26376;BME280;30544;42.196;24.336;2022-11-14T12:51:46;99994.19;;;15.55;61.30
26376;BME280;30544;42.196;24.336;2022-11-14T12:53:56;99994.72;;;15.52;60.83
26376;BME280;30544;42.196;24.336;2022-11-14T12:56:55;99996.03;;;15.66;60.84
26376;BME280;30544;42.196;24.336;2022-11-14T12:59:33;99993.75;;;15.63;60.19
26376;BME280;30544;42.196;24.336;2022-11-14T13:02:30;99992.66;;;15.64;59.92
26376;BME280;30544;42.196;24.336;2022-11-14T13:05:20;99992.31;;;15.39;61.45